Terminal Aerodrome Forecast
Issued by NWS

Home | Current Version | Previous Version | Text Only | Print | Product List | Glossary On
Versions: 1 2 3 4 5 6 7 8 9 10 11 12 13 14 15 16 17
029
FTUS46 KSGX 251729
TAFTRM
TAF
KTRM 251729Z 2518/2618 VRB06KT P6SM FEW200
     FM260400 32012KT P6SM BKN150
     FM261500 33006KT P6SM SCT050 BKN100=

USA.gov is the U.S. government's official web portal to all federal, state and local government web resources and services.